sensor_id;sensor_type;location;lat;lon;timestamp;P1;durP1;ratioP1;P2;durP2;ratioP2
44428;SDS011;30134;47.866;-4.222;2023-03-23T00:00:08;7.88;;;4.10;;
44428;SDS011;30134;47.866;-4.222;2023-03-23T00:02:35;9.05;;;4.30;;
44428;SDS011;30134;47.866;-4.222;2023-03-23T00:05:03;8.85;;;4.55;;
44428;SDS011;30134;47.866;-4.222;2023-03-23T00:07:32;8.40;;;4.55;;
44428;SDS011;30134;47.866;-4.222;2023-03-23T00:09:58;9.07;;;3.92;;
44428;SDS011;30134;47.866;-4.222;2023-03-23T00:12:28;7.90;;;4.57;;
44428;SDS011;30134;47.866;-4.222;2023-03-23T00:17:27;8.40;;;4.70;;
44428;SDS011;30134;47.866;-4.222;2023-03-23T00:19:54;9.00;;;4.00;;
44428;SDS011;30134;47.866;-4.222;2023-03-23T00:22:26;7.97;;;4.07;;
44428;SDS011;30134;47.866;-4.222;2023-03-23T00:24:54;10.30;;;4.38;;
44428;SDS011;30134;47.866;-4.222;2023-03-23T00:27:20;7.38;;;3.72;;
44428;SDS011;30134;47.866;-4.222;2023-03-23T00:29:50;9.43;;;4.40;;
44428;SDS011;30134;47.866;-4.222;2023-03-23T00:32:20;10.30;;;4.40;;
44428;SDS011;30134;47.866;-4.222;2023-03-23T00:34:52;9.43;;;4.40;;
44428;SDS011;30134;47.866;-4.222;2023-03-23T00:37:20;8.15;;;4.35;;
44428;SDS011;30134;47.866;-4.222;2023-03-23T00:39:46;7.65;;;3.83;;
44428;SDS011;30134;47.866;-4.222;2023-03-23T00:42:13;6.97;;;3.88;;
44428;SDS011;30134;47.866;-4.222;2023-03-23T00:44:41;8.25;;;4.45;;
44428;SDS011;30134;47.866;-4.222;2023-03-23T00:47:09;8.10;;;4.00;;
44428;SDS011;30134;47.866;-4.222;2023-03-23T00:49:37;8.13;;;4.13;;
44428;SDS011;30134;47.866;-4.222;2023-03-23T00:52:04;7.78;;;4.35;;
44428;SDS011;30134;47.866;-4.222;2023-03-23T00:54:31;7.13;;;3.70;;
44428;SDS011;30134;47.866;-4.222;2023-03-23T00:56:59;8.05;;;4.05;;
44428;SDS011;30134;47.866;-4.222;2023-03-23T00:59:25;8.18;;;3.78;;
44428;SDS011;30134;47.866;-4.222;2023-03-23T01:01:52;10.10;;;4.57;;
44428;SDS011;30134;47.866;-4.222;2023-03-23T01:04:18;8.30;;;4.05;;
44428;SDS011;30134;47.866;-4.222;2023-03-23T01:06:47;8.10;;;3.90;;
44428;SDS011;30134;47.866;-4.222;2023-03-23T01:09:16;7.90;;;3.90;;
44428;SDS011;30134;47.866;-4.222;2023-03-23T01:11:44;11.43;;;4.22;;
44428;SDS011;30134;47.866;-4.222;2023-03-23T01:14:11;9.48;;;4.22;;
44428;SDS011;30134;47.866;-4.222;2023-03-23T01:16:39;9.20;;;3.83;;
44428;SDS011;30134;47.866;-4.222;2023-03-23T01:19:06;8.25;;;3.92;;
44428;SDS011;30134;47.866;-4.222;2023-03-23T01:21:32;7.70;;;3.75;;
44428;SDS011;30134;47.866;-4.222;2023-03-23T01:23:58;8.90;;;3.90;;
44428;SDS011;30134;47.866;-4.222;2023-03-23T01:26:25;9.73;;;4.03;;
44428;SDS011;30134;47.866;-4.222;2023-03-23T01:28:53;9.77;;;4.32;;
44428;SDS011;30134;47.866;-4.222;2023-03-23T01:31:23;7.20;;;3.40;;
44428;SDS011;30134;47.866;-4.222;2023-03-23T01:33:51;8.93;;;3.90;;
44428;SDS011;30134;47.866;-4.222;2023-03-23T01:36:19;8.20;;;3.90;;
44428;SDS011;30134;47.866;-4.222;2023-03-23T01:39:04;11.25;;;4.03;;
44428;SDS011;30134;47.866;-4.222;2023-03-23T01:41:31;9.10;;;3.90;;
44428;SDS011;30134;47.866;-4.222;2023-03-23T01:44:03;9.32;;;4.15;;
44428;SDS011;30134;47.866;-4.222;2023-03-23T01:46:42;9.02;;;4.00;;
44428;SDS011;30134;47.866;-4.222;2023-03-23T01:49:13;9.55;;;4.32;;
44428;SDS011;30134;47.866;-4.222;2023-03-23T01:51:54;9.00;;;3.75;;
44428;SDS011;30134;47.866;-4.222;2023-03-23T01:54:31;9.27;;;3.95;;
44428;SDS011;30134;47.866;-4.222;2023-03-23T01:57:04;7.57;;;3.67;;
44428;SDS011;30134;47.866;-4.222;2023-03-23T01:59:36;10.05;;;4.13;;
44428;SDS011;30134;47.866;-4.222;2023-03-23T02:02:03;7.93;;;3.72;;
44428;SDS011;30134;47.866;-4.222;2023-03-23T02:04:29;8.77;;;4.10;;
44428;SDS011;30134;47.866;-4.222;2023-03-23T02:06:56;9.30;;;3.67;;
44428;SDS011;30134;47.866;-4.222;2023-03-23T02:09:26;6.97;;;3.40;;
44428;SDS011;30134;47.866;-4.222;2023-03-23T02:11:54;8.43;;;3.72;;
44428;SDS011;30134;47.866;-4.222;2023-03-23T02:14:20;7.07;;;3.50;;
44428;SDS011;30134;47.866;-4.222;2023-03-23T02:17:09;8.23;;;3.75;;
44428;SDS011;30134;47.866;-4.222;2023-03-23T02:22:53;6.65;;;3.90;;
44428;SDS011;30134;47.866;-4.222;2023-03-23T02:34:25;9.98;;;3.78;;
44428;SDS011;30134;47.866;-4.222;2023-03-23T02:37:27;8.43;;;3.90;;
44428;SDS011;30134;47.866;-4.222;2023-03-23T02:40:22;9.52;;;3.28;;
44428;SDS011;30134;47.866;-4.222;2023-03-23T02:42:57;8.55;;;4.00;;
44428;SDS011;30134;47.866;-4.222;2023-03-23T02:45:25;9.13;;;3.75;;
44428;SDS011;30134;47.866;-4.222;2023-03-23T02:47:55;7.93;;;3.50;;
44428;SDS011;30134;47.866;-4.222;2023-03-23T02:50:22;7.57;;;3.42;;
44428;SDS011;30134;47.866;-4.222;2023-03-23T02:52:52;10.68;;;3.85;;
44428;SDS011;30134;47.866;-4.222;2023-03-23T02:55:20;9.00;;;3.38;;
44428;SDS011;30134;47.866;-4.222;2023-03-23T02:57:53;6.65;;;3.38;;
44428;SDS011;30134;47.866;-4.222;2023-03-23T03:00:20;8.38;;;3.42;;
44428;SDS011;30134;47.866;-4.222;2023-03-23T03:02:51;7.93;;;3.88;;
44428;SDS011;30134;47.866;-4.222;2023-03-23T03:05:39;7.72;;;3.50;;
44428;SDS011;30134;47.866;-4.222;2023-03-23T03:11:13;6.55;;;3.28;;
44428;SDS011;30134;47.866;-4.222;2023-03-23T03:13:55;7.85;;;3.75;;
44428;SDS011;30134;47.866;-4.222;2023-03-23T03:16:34;8.70;;;3.90;;
44428;SDS011;30134;47.866;-4.222;2023-03-23T03:19:26;9.95;;;3.70;;
44428;SDS011;30134;47.866;-4.222;2023-03-23T03:21:58;7.93;;;3.17;;
44428;SDS011;30134;47.866;-4.222;2023-03-23T03:24:26;8.50;;;3.72;;
44428;SDS011;30134;47.866;-4.222;2023-03-23T03:26:55;7.85;;;3.53;;
44428;SDS011;30134;47.866;-4.222;2023-03-23T03:29:26;6.97;;;3.33;;
44428;SDS011;30134;47.866;-4.222;2023-03-23T03:32:00;10.73;;;4.40;;
44428;SDS011;30134;47.866;-4.222;2023-03-23T03:34:33;8.00;;;3.67;;
44428;SDS011;30134;47.866;-4.222;2023-03-23T03:36:59;8.02;;;3.90;;
44428;SDS011;30134;47.866;-4.222;2023-03-23T03:39:26;8.98;;;3.75;;
44428;SDS011;30134;47.866;-4.222;2023-03-23T03:41:53;8.48;;;3.47;;
44428;SDS011;30134;47.866;-4.222;2023-03-23T03:44:22;8.23;;;3.45;;
44428;SDS011;30134;47.866;-4.222;2023-03-23T03:46:48;6.25;;;3.15;;
44428;SDS011;30134;47.866;-4.222;2023-03-23T03:49:14;8.52;;;3.72;;
44428;SDS011;30134;47.866;-4.222;2023-03-23T03:51:40;7.68;;;3.30;;
44428;SDS011;30134;47.866;-4.222;2023-03-23T03:54:14;9.43;;;3.90;;
44428;SDS011;30134;47.866;-4.222;2023-03-23T03:56:41;8.35;;;3.15;;
44428;SDS011;30134;47.866;-4.222;2023-03-23T03:59:07;8.80;;;3.58;;
44428;SDS011;30134;47.866;-4.222;2023-03-23T04:01:36;7.03;;;3.33;;
44428;SDS011;30134;47.866;-4.222;2023-03-23T04:04:03;9.70;;;3.85;;
44428;SDS011;30134;47.866;-4.222;2023-03-23T04:06:32;6.88;;;3.47;;
44428;SDS011;30134;47.866;-4.222;2023-03-23T04:09:01;9.35;;;3.60;;
44428;SDS011;30134;47.866;-4.222;2023-03-23T04:11:31;8.07;;;3.53;;
44428;SDS011;30134;47.866;-4.222;2023-03-23T04:13:58;8.88;;;3.25;;
44428;SDS011;30134;47.866;-4.222;2023-03-23T04:16:24;7.57;;;3.58;;
44428;SDS011;30134;47.866;-4.222;2023-03-23T04:18:51;7.88;;;3.33;;
44428;SDS011;30134;47.866;-4.222;2023-03-23T04:21:17;7.88;;;3.55;;
44428;SDS011;30134;47.866;-4.222;2023-03-23T04:23:43;7.63;;;3.47;;
44428;SDS011;30134;47.866;-4.222;2023-03-23T04:26:09;8.13;;;3.38;;
44428;SDS011;30134;47.866;-4.222;2023-03-23T04:28:38;9.95;;;3.80;;
44428;SDS011;30134;47.866;-4.222;2023-03-23T04:31:06;8.80;;;3.60;;
44428;SDS011;30134;47.866;-4.222;2023-03-23T04:33:33;8.90;;;3.28;;
44428;SDS011;30134;47.866;-4.222;2023-03-23T04:36:02;7.90;;;3.38;;
44428;SDS011;30134;47.866;-4.222;2023-03-23T04:38:28;9.15;;;3.50;;
44428;SDS011;30134;47.866;-4.222;2023-03-23T04:40:57;8.05;;;3.38;;
44428;SDS011;30134;47.866;-4.222;2023-03-23T04:43:25;9.68;;;4.03;;
44428;SDS011;30134;47.866;-4.222;2023-03-23T04:45:55;10.93;;;3.83;;
44428;SDS011;30134;47.866;-4.222;2023-03-23T04:48:23;9.52;;;3.92;;
44428;SDS011;30134;47.866;-4.222;2023-03-23T04:50:52;6.80;;;3.63;;
44428;SDS011;30134;47.866;-4.222;2023-03-23T04:53:19;8.50;;;3.40;;
44428;SDS011;30134;47.866;-4.222;2023-03-23T04:55:46;10.70;;;3.67;;
44428;SDS011;30134;47.866;-4.222;2023-03-23T04:58:14;7.95;;;3.40;;
44428;SDS011;30134;47.866;-4.222;2023-03-23T05:00:42;7.72;;;3.28;;
44428;SDS011;30134;47.866;-4.222;2023-03-23T05:03:09;8.10;;;3.47;;
44428;SDS011;30134;47.866;-4.222;2023-03-23T05:05:36;9.75;;;3.72;;
44428;SDS011;30134;47.866;-4.222;2023-03-23T05:08:02;7.72;;;2.88;;
44428;SDS011;30134;47.866;-4.222;2023-03-23T05:10:29;9.23;;;3.28;;
44428;SDS011;30134;47.866;-4.222;2023-03-23T05:12:55;9.30;;;3.42;;
44428;SDS011;30134;47.866;-4.222;2023-03-23T05:15:21;9.30;;;3.35;;
44428;SDS011;30134;47.866;-4.222;2023-03-23T05:17:47;8.02;;;3.60;;
44428;SDS011;30134;47.866;-4.222;2023-03-23T05:20:14;8.82;;;3.40;;
44428;SDS011;30134;47.866;-4.222;2023-03-23T05:22:45;9.48;;;4.00;;
44428;SDS011;30134;47.866;-4.222;2023-03-23T05:25:15;10.82;;;3.90;;
44428;SDS011;30134;47.866;-4.222;2023-03-23T05:27:46;9.82;;;3.90;;
44428;SDS011;30134;47.866;-4.222;2023-03-23T05:30:18;9.05;;;4.03;;
44428;SDS011;30134;47.866;-4.222;2023-03-23T05:32:46;8.98;;;3.30;;
44428;SDS011;30134;47.866;-4.222;2023-03-23T05:35:17;9.43;;;3.80;;
44428;SDS011;30134;47.866;-4.222;2023-03-23T05:37:44;9.55;;;3.70;;
44428;SDS011;30134;47.866;-4.222;2023-03-23T05:40:10;6.57;;;3.47;;
44428;SDS011;30134;47.866;-4.222;2023-03-23T05:42:38;8.00;;;3.92;;
44428;SDS011;30134;47.866;-4.222;2023-03-23T05:45:06;8.00;;;3.47;;
44428;SDS011;30134;47.866;-4.222;2023-03-23T05:47:36;8.88;;;3.08;;
44428;SDS011;30134;47.866;-4.222;2023-03-23T05:50:06;7.90;;;3.70;;
44428;SDS011;30134;47.866;-4.222;2023-03-23T05:52:36;11.35;;;3.63;;
44428;SDS011;30134;47.866;-4.222;2023-03-23T05:55:03;8.35;;;3.30;;
44428;SDS011;30134;47.866;-4.222;2023-03-23T05:57:31;8.98;;;3.85;;
44428;SDS011;30134;47.866;-4.222;2023-03-23T05:59:57;8.45;;;3.22;;
44428;SDS011;30134;47.866;-4.222;2023-03-23T06:02:24;6.55;;;3.05;;
44428;SDS011;30134;47.866;-4.222;2023-03-23T06:04:54;9.27;;;3.90;;
44428;SDS011;30134;47.866;-4.222;2023-03-23T06:07:23;8.43;;;3.80;;
44428;SDS011;30134;47.866;-4.222;2023-03-23T06:09:50;8.25;;;3.03;;
44428;SDS011;30134;47.866;-4.222;2023-03-23T06:12:20;8.85;;;3.70;;
44428;SDS011;30134;47.866;-4.222;2023-03-23T06:14:47;8.95;;;3.30;;
44428;SDS011;30134;47.866;-4.222;2023-03-23T06:17:14;9.40;;;3.60;;
44428;SDS011;30134;47.866;-4.222;2023-03-23T06:19:42;8.57;;;3.60;;
44428;SDS011;30134;47.866;-4.222;2023-03-23T06:22:13;9.10;;;3.45;;
44428;SDS011;30134;47.866;-4.222;2023-03-23T06:24:40;8.85;;;3.45;;
44428;SDS011;30134;47.866;-4.222;2023-03-23T06:27:06;9.90;;;3.78;;
44428;SDS011;30134;47.866;-4.222;2023-03-23T06:29:34;6.53;;;3.35;;
44428;SDS011;30134;47.866;-4.222;2023-03-23T06:32:01;8.30;;;3.80;;
44428;SDS011;30134;47.866;-4.222;2023-03-23T06:34:29;8.18;;;3.55;;
44428;SDS011;30134;47.866;-4.222;2023-03-23T06:36:58;8.70;;;3.50;;
44428;SDS011;30134;47.866;-4.222;2023-03-23T06:39:25;8.63;;;4.00;;
44428;SDS011;30134;47.866;-4.222;2023-03-23T06:41:51;7.57;;;3.38;;
44428;SDS011;30134;47.866;-4.222;2023-03-23T06:44:17;8.68;;;3.50;;
44428;SDS011;30134;47.866;-4.222;2023-03-23T06:46:43;8.35;;;3.55;;
44428;SDS011;30134;47.866;-4.222;2023-03-23T06:49:09;7.68;;;3.38;;
44428;SDS011;30134;47.866;-4.222;2023-03-23T06:51:36;9.50;;;3.65;;
44428;SDS011;30134;47.866;-4.222;2023-03-23T06:54:02;7.63;;;3.35;;
44428;SDS011;30134;47.866;-4.222;2023-03-23T06:56:30;6.47;;;3.25;;
44428;SDS011;30134;47.866;-4.222;2023-03-23T06:58:56;9.30;;;3.35;;
44428;SDS011;30134;47.866;-4.222;2023-03-23T07:01:22;6.65;;;3.20;;
44428;SDS011;30134;47.866;-4.222;2023-03-23T07:03:48;7.38;;;3.15;;
44428;SDS011;30134;47.866;-4.222;2023-03-23T07:06:15;7.40;;;3.28;;
44428;SDS011;30134;47.866;-4.222;2023-03-23T07:08:41;8.93;;;3.67;;
44428;SDS011;30134;47.866;-4.222;2023-03-23T07:11:07;9.10;;;3.58;;
44428;SDS011;30134;47.866;-4.222;2023-03-23T07:13:35;7.88;;;3.50;;
44428;SDS011;30134;47.866;-4.222;2023-03-23T07:16:03;7.38;;;3.60;;
44428;SDS011;30134;47.866;-4.222;2023-03-23T07:18:31;9.02;;;3.72;;
44428;SDS011;30134;47.866;-4.222;2023-03-23T07:20:57;7.93;;;3.35;;
44428;SDS011;30134;47.866;-4.222;2023-03-23T07:23:24;9.18;;;3.85;;
44428;SDS011;30134;47.866;-4.222;2023-03-23T07:25:51;6.47;;;3.40;;
44428;SDS011;30134;47.866;-4.222;2023-03-23T07:28:17;9.75;;;3.75;;
44428;SDS011;30134;47.866;-4.222;2023-03-23T07:30:43;11.20;;;3.80;;
44428;SDS011;30134;47.866;-4.222;2023-03-23T07:33:15;7.95;;;3.50;;
44428;SDS011;30134;47.866;-4.222;2023-03-23T07:35:42;8.73;;;3.58;;
44428;SDS011;30134;47.866;-4.222;2023-03-23T07:38:08;8.30;;;3.45;;
44428;SDS011;30134;47.866;-4.222;2023-03-23T07:40:34;7.88;;;3.78;;
44428;SDS011;30134;47.866;-4.222;2023-03-23T07:43:01;7.97;;;3.60;;
44428;SDS011;30134;47.866;-4.222;2023-03-23T07:45:29;7.60;;;3.20;;
44428;SDS011;30134;47.866;-4.222;2023-03-23T07:47:56;10.00;;;3.40;;
44428;SDS011;30134;47.866;-4.222;2023-03-23T07:50:22;7.43;;;3.30;;
44428;SDS011;30134;47.866;-4.222;2023-03-23T07:52:55;8.20;;;3.60;;
44428;SDS011;30134;47.866;-4.222;2023-03-23T07:55:22;7.03;;;3.40;;
44428;SDS011;30134;47.866;-4.222;2023-03-23T07:57:50;8.70;;;3.40;;
44428;SDS011;30134;47.866;-4.222;2023-03-23T08:00:17;10.63;;;3.97;;
44428;SDS011;30134;47.866;-4.222;2023-03-23T08:02:47;8.32;;;3.75;;
44428;SDS011;30134;47.866;-4.222;2023-03-23T08:05:17;7.97;;;3.25;;
44428;SDS011;30134;47.866;-4.222;2023-03-23T08:07:45;9.65;;;3.10;;
44428;SDS011;30134;47.866;-4.222;2023-03-23T08:10:12;9.35;;;3.40;;
44428;SDS011;30134;47.866;-4.222;2023-03-23T08:12:40;7.30;;;3.05;;
44428;SDS011;30134;47.866;-4.222;2023-03-23T08:15:09;9.48;;;3.42;;
44428;SDS011;30134;47.866;-4.222;2023-03-23T08:17:40;7.65;;;3.53;;
44428;SDS011;30134;47.866;-4.222;2023-03-23T08:20:07;6.80;;;3.22;;
44428;SDS011;30134;47.866;-4.222;2023-03-23T08:22:51;7.15;;;3.45;;
44428;SDS011;30134;47.866;-4.222;2023-03-23T08:25:34;6.45;;;3.28;;
44428;SDS011;30134;47.866;-4.222;2023-03-23T08:28:00;8.32;;;3.72;;
44428;SDS011;30134;47.866;-4.222;2023-03-23T08:30:26;8.05;;;3.47;;
44428;SDS011;30134;47.866;-4.222;2023-03-23T08:32:55;8.38;;;3.28;;
44428;SDS011;30134;47.866;-4.222;2023-03-23T08:35:23;9.40;;;3.72;;
44428;SDS011;30134;47.866;-4.222;2023-03-23T08:37:49;8.32;;;3.55;;
44428;SDS011;30134;47.866;-4.222;2023-03-23T08:40:17;8.68;;;3.72;;
44428;SDS011;30134;47.866;-4.222;2023-03-23T08:42:45;10.07;;;3.95;;
44428;SDS011;30134;47.866;-4.222;2023-03-23T08:45:13;7.30;;;3.70;;
44428;SDS011;30134;47.866;-4.222;2023-03-23T08:47:43;10.07;;;3.38;;
44428;SDS011;30134;47.866;-4.222;2023-03-23T08:50:13;9.07;;;3.30;;
44428;SDS011;30134;47.866;-4.222;2023-03-23T08:52:42;8.60;;;3.13;;
44428;SDS011;30134;47.866;-4.222;2023-03-23T08:55:08;7.13;;;3.10;;
44428;SDS011;30134;47.866;-4.222;2023-03-23T08:57:35;6.07;;;2.95;;
44428;SDS011;30134;47.866;-4.222;2023-03-23T09:00:05;7.50;;;3.13;;
44428;SDS011;30134;47.866;-4.222;2023-03-23T09:02:46;8.70;;;3.63;;
44428;SDS011;30134;47.866;-4.222;2023-03-23T09:05:15;9.30;;;3.50;;
44428;SDS011;30134;47.866;-4.222;2023-03-23T09:07:44;8.00;;;3.55;;
44428;SDS011;30134;47.866;-4.222;2023-03-23T09:10:13;6.97;;;3.45;;
44428;SDS011;30134;47.866;-4.222;2023-03-23T09:12:40;10.68;;;3.67;;
44428;SDS011;30134;47.866;-4.222;2023-03-23T09:15:09;8.02;;;3.22;;
44428;SDS011;30134;47.866;-4.222;2023-03-23T09:17:44;6.72;;;3.15;;
44428;SDS011;30134;47.866;-4.222;2023-03-23T09:20:14;7.90;;;3.00;;
44428;SDS011;30134;47.866;-4.222;2023-03-23T09:22:46;8.38;;;3.67;;
44428;SDS011;30134;47.866;-4.222;2023-03-23T09:25:16;9.85;;;3.20;;
44428;SDS011;30134;47.866;-4.222;2023-03-23T09:27:46;8.07;;;3.22;;
44428;SDS011;30134;47.866;-4.222;2023-03-23T09:30:22;9.77;;;3.80;;
44428;SDS011;30134;47.866;-4.222;2023-03-23T09:32:51;6.68;;;3.00;;
44428;SDS011;30134;47.866;-4.222;2023-03-23T09:35:18;7.93;;;3.28;;
44428;SDS011;30134;47.866;-4.222;2023-03-23T09:37:46;9.63;;;3.55;;
44428;SDS011;30134;47.866;-4.222;2023-03-23T09:40:22;7.80;;;3.50;;
44428;SDS011;30134;47.866;-4.222;2023-03-23T09:43:04;7.45;;;3.22;;
44428;SDS011;30134;47.866;-4.222;2023-03-23T09:45:53;7.03;;;3.40;;
44428;SDS011;30134;47.866;-4.222;2023-03-23T09:48:56;8.43;;;3.40;;
44428;SDS011;30134;47.866;-4.222;2023-03-23T09:51:44;7.95;;;3.42;;
44428;SDS011;30134;47.866;-4.222;2023-03-23T09:54:38;7.85;;;3.20;;
44428;SDS011;30134;47.866;-4.222;2023-03-23T09:57:34;7.95;;;3.53;;
44428;SDS011;30134;47.866;-4.222;2023-03-23T10:00:21;10.05;;;3.53;;
44428;SDS011;30134;47.866;-4.222;2023-03-23T10:03:16;11.57;;;3.63;;
44428;SDS011;30134;47.866;-4.222;2023-03-23T10:05:49;7.00;;;3.42;;
44428;SDS011;30134;47.866;-4.222;2023-03-23T10:08:27;9.35;;;3.72;;
44428;SDS011;30134;47.866;-4.222;2023-03-23T10:10:59;8.80;;;3.53;;
44428;SDS011;30134;47.866;-4.222;2023-03-23T10:13:51;8.98;;;3.42;;
44428;SDS011;30134;47.866;-4.222;2023-03-23T10:22:51;8.38;;;3.25;;
44428;SDS011;30134;47.866;-4.222;2023-03-23T10:26:09;13.30;;;4.05;;
44428;SDS011;30134;47.866;-4.222;2023-03-23T10:28:47;10.85;;;4.25;;
44428;SDS011;30134;47.866;-4.222;2023-03-23T10:31:26;7.88;;;3.80;;
44428;SDS011;30134;47.866;-4.222;2023-03-23T10:34:44;8.65;;;3.72;;
44428;SDS011;30134;47.866;-4.222;2023-03-23T10:37:04;11.23;;;4.15;;
44428;SDS011;30134;47.866;-4.222;2023-03-23T10:42:37;11.02;;;3.92;;
44428;SDS011;30134;47.866;-4.222;2023-03-23T10:45:18;11.02;;;4.30;;
44428;SDS011;30134;47.866;-4.222;2023-03-23T10:50:56;13.05;;;5.05;;
44428;SDS011;30134;47.866;-4.222;2023-03-23T10:56:29;14.27;;;4.70;;
44428;SDS011;30134;47.866;-4.222;2023-03-23T10:59:14;12.13;;;4.63;;
44428;SDS011;30134;47.866;-4.222;2023-03-23T11:02:14;12.18;;;4.65;;
44428;SDS011;30134;47.866;-4.222;2023-03-23T11:05:03;11.07;;;4.63;;
44428;SDS011;30134;47.866;-4.222;2023-03-23T11:07:40;16.55;;;4.82;;
44428;SDS011;30134;47.866;-4.222;2023-03-23T11:10:18;13.73;;;5.45;;
44428;SDS011;30134;47.866;-4.222;2023-03-23T11:13:00;11.80;;;4.88;;
44428;SDS011;30134;47.866;-4.222;2023-03-23T11:15:30;16.60;;;4.85;;
44428;SDS011;30134;47.866;-4.222;2023-03-23T11:18:05;16.52;;;4.95;;
44428;SDS011;30134;47.866;-4.222;2023-03-23T11:20:44;15.30;;;4.93;;
44428;SDS011;30134;47.866;-4.222;2023-03-23T11:26:29;18.55;;;5.75;;
44428;SDS011;30134;47.866;-4.222;2023-03-23T11:29:01;16.52;;;5.93;;
44428;SDS011;30134;47.866;-4.222;2023-03-23T11:31:38;13.10;;;4.47;;
44428;SDS011;30134;47.866;-4.222;2023-03-23T11:34:19;15.13;;;5.30;;
44428;SDS011;30134;47.866;-4.222;2023-03-23T11:36:50;13.57;;;5.10;;
44428;SDS011;30134;47.866;-4.222;2023-03-23T11:39:33;15.60;;;5.28;;
44428;SDS011;30134;47.866;-4.222;2023-03-23T11:42:23;14.38;;;5.43;;
44428;SDS011;30134;47.866;-4.222;2023-03-23T11:48:12;16.13;;;5.20;;
44428;SDS011;30134;47.866;-4.222;2023-03-23T11:51:15;15.77;;;4.97;;
44428;SDS011;30134;47.866;-4.222;2023-03-23T11:57:10;17.33;;;4.72;;
44428;SDS011;30134;47.866;-4.222;2023-03-23T11:59:38;13.15;;;5.40;;
44428;SDS011;30134;47.866;-4.222;2023-03-23T12:02:28;15.65;;;5.07;;
44428;SDS011;30134;47.866;-4.222;2023-03-23T12:11:08;18.92;;;5.30;;
44428;SDS011;30134;47.866;-4.222;2023-03-23T12:16:30;16.92;;;5.15;;
44428;SDS011;30134;47.866;-4.222;2023-03-23T12:34:49;24.10;;;6.68;;
44428;SDS011;30134;47.866;-4.222;2023-03-23T12:40:35;15.18;;;5.50;;
44428;SDS011;30134;47.866;-4.222;2023-03-23T12:48:56;18.27;;;5.20;;
44428;SDS011;30134;47.866;-4.222;2023-03-23T12:51:41;18.90;;;6.30;;
44428;SDS011;30134;47.866;-4.222;2023-03-23T12:57:26;17.17;;;6.35;;
44428;SDS011;30134;47.866;-4.222;2023-03-23T13:02:52;21.13;;;6.82;;
44428;SDS011;30134;47.866;-4.222;2023-03-23T13:05:29;17.15;;;5.80;;
44428;SDS011;30134;47.866;-4.222;2023-03-23T13:08:16;18.55;;;5.93;;
44428;SDS011;30134;47.866;-4.222;2023-03-23T13:10:50;18.35;;;6.07;;
44428;SDS011;30134;47.866;-4.222;2023-03-23T13:13:23;15.07;;;6.15;;
44428;SDS011;30134;47.866;-4.222;2023-03-23T13:19:08;17.27;;;6.30;;
44428;SDS011;30134;47.866;-4.222;2023-03-23T13:21:53;14.65;;;5.82;;
44428;SDS011;30134;47.866;-4.222;2023-03-23T13:24:56;19.08;;;5.90;;
44428;SDS011;30134;47.866;-4.222;2023-03-23T13:27:27;17.08;;;6.07;;
44428;SDS011;30134;47.866;-4.222;2023-03-23T13:29:57;14.85;;;5.55;;
44428;SDS011;30134;47.866;-4.222;2023-03-23T13:32:39;18.17;;;5.78;;
44428;SDS011;30134;47.866;-4.222;2023-03-23T13:37:47;19.35;;;5.30;;
44428;SDS011;30134;47.866;-4.222;2023-03-23T13:40:20;20.00;;;6.32;;
44428;SDS011;30134;47.866;-4.222;2023-03-23T13:43:00;15.43;;;5.60;;
44428;SDS011;30134;47.866;-4.222;2023-03-23T13:48:18;15.32;;;5.22;;
44428;SDS011;30134;47.866;-4.222;2023-03-23T13:50:57;16.83;;;5.57;;
44428;SDS011;30134;47.866;-4.222;2023-03-23T13:56:17;13.98;;;4.90;;
44428;SDS011;30134;47.866;-4.222;2023-03-23T13:59:05;14.30;;;5.00;;
44428;SDS011;30134;47.866;-4.222;2023-03-23T14:02:28;17.75;;;5.80;;
44428;SDS011;30134;47.866;-4.222;2023-03-23T14:04:55;16.88;;;5.88;;
44428;SDS011;30134;47.866;-4.222;2023-03-23T14:07:22;17.02;;;5.65;;
44428;SDS011;30134;47.866;-4.222;2023-03-23T14:09:49;15.70;;;5.43;;
44428;SDS011;30134;47.866;-4.222;2023-03-23T14:14:45;15.38;;;5.28;;
44428;SDS011;30134;47.866;-4.222;2023-03-23T14:17:15;13.70;;;5.38;;
44428;SDS011;30134;47.866;-4.222;2023-03-23T14:19:50;17.02;;;5.45;;
44428;SDS011;30134;47.866;-4.222;2023-03-23T14:22:26;16.83;;;5.57;;
44428;SDS011;30134;47.866;-4.222;2023-03-23T14:27:38;14.63;;;5.50;;
44428;SDS011;30134;47.866;-4.222;2023-03-23T14:30:08;14.68;;;4.75;;
44428;SDS011;30134;47.866;-4.222;2023-03-23T14:32:46;17.58;;;5.68;;
44428;SDS011;30134;47.866;-4.222;2023-03-23T14:37:53;14.15;;;5.13;;
44428;SDS011;30134;47.866;-4.222;2023-03-23T14:40:20;15.30;;;5.30;;
44428;SDS011;30134;47.866;-4.222;2023-03-23T14:42:47;16.52;;;5.05;;
44428;SDS011;30134;47.866;-4.222;2023-03-23T14:45:16;12.25;;;4.72;;
44428;SDS011;30134;47.866;-4.222;2023-03-23T14:47:45;13.65;;;4.97;;
44428;SDS011;30134;47.866;-4.222;2023-03-23T14:50:29;16.98;;;5.18;;
44428;SDS011;30134;47.866;-4.222;2023-03-23T14:53:10;10.98;;;4.63;;
44428;SDS011;30134;47.866;-4.222;2023-03-23T14:55:52;14.93;;;5.38;;
44428;SDS011;30134;47.866;-4.222;2023-03-23T14:58:21;14.60;;;4.78;;
44428;SDS011;30134;47.866;-4.222;2023-03-23T15:03:33;13.18;;;4.65;;
44428;SDS011;30134;47.866;-4.222;2023-03-23T15:06:30;10.90;;;4.97;;
44428;SDS011;30134;47.866;-4.222;2023-03-23T15:09:00;15.30;;;4.85;;
44428;SDS011;30134;47.866;-4.222;2023-03-23T15:11:34;14.13;;;4.50;;
44428;SDS011;30134;47.866;-4.222;2023-03-23T15:14:09;17.15;;;4.97;;
44428;SDS011;30134;47.866;-4.222;2023-03-23T15:16:48;17.73;;;5.28;;
44428;SDS011;30134;47.866;-4.222;2023-03-23T15:22:20;12.35;;;4.45;;
44428;SDS011;30134;47.866;-4.222;2023-03-23T15:27:51;12.73;;;4.50;;
44428;SDS011;30134;47.866;-4.222;2023-03-23T15:32:50;11.48;;;4.22;;
44428;SDS011;30134;47.866;-4.222;2023-03-23T15:35:38;9.35;;;4.53;;
44428;SDS011;30134;47.866;-4.222;2023-03-23T15:38:26;10.98;;;4.00;;
44428;SDS011;30134;47.866;-4.222;2023-03-23T15:43:26;10.30;;;4.00;;
44428;SDS011;30134;47.866;-4.222;2023-03-23T15:45:57;12.80;;;4.47;;
44428;SDS011;30134;47.866;-4.222;2023-03-23T15:51:21;10.70;;;4.43;;
44428;SDS011;30134;47.866;-4.222;2023-03-23T15:53:50;11.98;;;4.55;;
44428;SDS011;30134;47.866;-4.222;2023-03-23T15:56:17;12.73;;;5.20;;
44428;SDS011;30134;47.866;-4.222;2023-03-23T15:58:44;13.60;;;5.13;;
44428;SDS011;30134;47.866;-4.222;2023-03-23T16:01:11;12.65;;;5.22;;
44428;SDS011;30134;47.866;-4.222;2023-03-23T16:03:52;17.75;;;5.82;;
44428;SDS011;30134;47.866;-4.222;2023-03-23T16:06:26;14.48;;;6.15;;
44428;SDS011;30134;47.866;-4.222;2023-03-23T16:08:56;13.90;;;6.00;;
44428;SDS011;30134;47.866;-4.222;2023-03-23T16:11:23;16.38;;;5.93;;
44428;SDS011;30134;47.866;-4.222;2023-03-23T16:13:52;14.57;;;5.63;;
44428;SDS011;30134;47.866;-4.222;2023-03-23T16:16:28;15.88;;;6.05;;
44428;SDS011;30134;47.866;-4.222;2023-03-23T16:19:13;16.75;;;5.93;;
44428;SDS011;30134;47.866;-4.222;2023-03-23T16:21:40;14.00;;;5.30;;
44428;SDS011;30134;47.866;-4.222;2023-03-23T16:24:07;15.23;;;5.32;;
44428;SDS011;30134;47.866;-4.222;2023-03-23T16:26:34;12.73;;;5.63;;
44428;SDS011;30134;47.866;-4.222;2023-03-23T16:29:01;11.68;;;5.18;;
44428;SDS011;30134;47.866;-4.222;2023-03-23T16:31:35;11.85;;;5.05;;
44428;SDS011;30134;47.866;-4.222;2023-03-23T16:34:02;13.30;;;5.57;;
44428;SDS011;30134;47.866;-4.222;2023-03-23T16:36:28;12.95;;;4.95;;
44428;SDS011;30134;47.866;-4.222;2023-03-23T16:38:54;16.02;;;5.40;;
44428;SDS011;30134;47.866;-4.222;2023-03-23T16:41:20;10.73;;;4.95;;
44428;SDS011;30134;47.866;-4.222;2023-03-23T16:43:46;11.55;;;5.43;;
44428;SDS011;30134;47.866;-4.222;2023-03-23T16:46:12;11.05;;;4.72;;
44428;SDS011;30134;47.866;-4.222;2023-03-23T16:48:38;11.15;;;5.43;;
44428;SDS011;30134;47.866;-4.222;2023-03-23T16:51:04;12.20;;;4.90;;
44428;SDS011;30134;47.866;-4.222;2023-03-23T16:53:31;11.90;;;4.68;;
44428;SDS011;30134;47.866;-4.222;2023-03-23T16:55:57;12.52;;;4.63;;